Amherst, Ohio
Current Conditions -  °F | °C
As of 10:53 AM on Wednesday 28 Jan 2015 (Local Time) from KLPR Reporting Station
Clear Clear  
Wind Chill: 14°   Ceiling: Unl
Heat Index: 14°   Visibility: 7mi
Dew Point: 14°   Wind: 3mph
Humidity: 100%   Direction: 220°SW
Pressure: 30.36"   Gusts: NA
Location:  41.41°N, 82.24°W
Report Text: KLPR 281553Z AUTO 22003KT 7SM CLR M10/M10 A3036 RMK AO2 SLP298 I1001 T11001100 TSNO
Loading
Personal Weather Stations






























Interactive Weather Map New forecast layout! Learn more

10-Day Weather Forecast

Advertisements
Track Severe Weather on mobile